Time;durP1;ratioP1;P1;durP2;ratioP2;P2;SDS_P1;SDS_P2;PMS_P1;PMS_P2;Temp;Humidity;BMP_temperature;BMP_pressure;BME280_temperature;BME280_humidity;BME280_pressure;Samples;Min_cycle;Max_cycle;Signal;HPM_P1;HPM_P2
2021/12/20 00:00:15;;;;;;;9.52;3.53;;;;;;;5.93;100.00;102709.66;5072234;28;20028;-55
2021/12/20 00:02:43;;;;;;;8.35;2.40;;;;;;;5.98;100.00;102713.22;5053119;28;20029;-53
2021/12/20 00:05:08;;;;;;;12.20;2.72;;;;;;;6.37;100.00;102767.88;5051849;28;20037;-53
2021/12/20 00:07:34;;;;;;;12.00;2.65;;;;;;;6.38;100.00;102776.63;5034412;28;20037;-51
2021/12/20 00:09:59;;;;;;;13.70;2.70;;;;;;;6.38;100.00;102763.53;5052499;28;20036;-55
2021/12/20 00:12:24;;;;;;;10.18;2.70;;;;;;;6.12;100.00;102740.47;5034717;28;20037;-51
2021/12/20 00:14:50;;;;;;;11.18;3.10;;;;;;;5.90;100.00;102709.59;5052442;28;20033;-54
2021/12/20 00:17:15;;;;;;;9.55;2.58;;;;;;;6.00;100.00;102732.44;5033568;28;20029;-54
2021/12/20 00:19:40;;;;;;;11.57;2.88;;;;;;;6.30;100.00;102767.78;5051773;28;20477;-51
2021/12/20 00:22:06;;;;;;;14.10;2.80;;;;;;;6.27;100.00;102776.47;5050913;28;20491;-53
2021/12/20 00:24:31;;;;;;;13.00;2.80;;;;;;;6.28;100.00;102774.69;5051002;28;20041;-50
2021/12/20 00:26:56;;;;;;;14.55;2.90;;;;;;;6.18;100.00;102761.50;5034742;28;20037;-52
2021/12/20 00:29:22;;;;;;;19.30;3.42;;;;;;;6.14;100.00;102762.28;5052429;28;20048;-52
2021/12/20 00:31:47;;;;;;;14.82;2.72;;;;;;;6.23;100.00;102778.13;5052476;28;20105;-51
2021/12/20 00:34:13;;;;;;;18.65;3.75;;;;;;;5.93;100.00;102737.53;5052460;28;20037;-54
2021/12/20 00:36:38;;;;;;;21.40;3.05;;;;;;;5.77;100.00;102705.00;5052341;28;20029;-57
2021/12/20 00:41:47;;;;;;;19.77;3.20;;;;;;;6.25;100.00;102795.59;5052790;28;20052;-54
2021/12/20 00:44:13;;;;;;;17.00;3.25;;;;;;;6.10;100.00;102772.69;5052516;28;20392;-53
2021/12/20 00:46:38;;;;;;;27.65;3.50;;;;;;;6.21;100.00;102790.31;5052285;28;20130;-52
2021/12/20 00:49:03;;;;;;;26.10;4.20;;;;;;;6.22;100.00;102799.91;5052313;28;20087;-51
2021/12/20 00:51:29;;;;;;;23.60;4.63;;;;;;;6.24;100.00;102802.56;5034310;28;20086;-55
2021/12/20 00:53:54;;;;;;;17.55;3.60;;;;;;;6.21;100.00;102792.03;5034169;28;20040;-54
2021/12/20 00:56:19;;;;;;;24.33;4.65;;;;;;;5.81;100.00;102716.41;5052397;28;20033;-53
2021/12/20 00:58:45;;;;;;;20.30;4.55;;;;;;;5.77;100.00;102714.56;5051999;28;20401;-55
2021/12/20 01:01:10;;;;;;;20.40;3.55;;;;;;;6.06;100.00;102758.69;5052144;28;20072;-51
2021/12/20 01:03:36;;;;;;;14.80;3.05;;;;;;;6.20;100.00;102785.03;5052140;28;20029;-51
2021/12/20 01:06:02;;;;;;;14.48;3.58;;;;;;;5.78;100.00;102708.50;5052083;28;20029;-54
2021/12/20 01:08:32;;;;;;;22.98;3.83;;;;;;;6.06;100.00;102761.28;5034139;28;20480;-54
2021/12/20 01:10:58;;;;;;;24.67;3.72;;;;;;;5.74;100.00;102718.03;5052184;28;20035;-56
2021/12/20 01:13:28;;;;;;;19.73;3.58;;;;;;;6.07;100.00;102770.03;5052146;28;20120;-54
2021/12/20 01:15:55;;;;;;;26.05;3.95;;;;;;;5.95;100.00;102743.69;5052101;28;20044;-55
2021/12/20 01:18:22;;;;;;;22.00;3.72;;;;;;;6.15;100.00;102787.59;5051903;28;20039;-53
2021/12/20 01:20:47;;;;;;;21.55;3.78;;;;;;;6.15;100.00;102784.09;5051764;28;20041;-54
2021/12/20 01:23:13;;;;;;;19.85;2.97;;;;;;;5.66;100.00;102694.34;5034230;28;20444;-52
2021/12/20 01:25:40;;;;;;;23.90;3.78;;;;;;;6.10;100.00;102777.91;5051792;28;20064;-51
2021/12/20 01:28:06;;;;;;;22.25;4.00;;;;;;;5.66;100.00;102690.88;5051659;28;20064;-50
2021/12/20 01:30:33;;;;;;;18.63;3.50;;;;;;;6.00;100.00;102769.03;5052336;28;20481;-53
2021/12/20 01:32:58;;;;;;;21.50;4.45;;;;;;;6.07;100.00;102778.72;5055519;28;20107;-51
2021/12/20 01:35:25;;;;;;;16.63;3.90;;;;;;;6.04;100.00;102772.59;5037590;28;20084;-53
2021/12/20 01:37:52;;;;;;;17.40;4.13;;;;;;;5.62;100.00;102691.69;5037850;28;20045;-53
2021/12/20 01:40:18;;;;;;;23.00;4.38;;;;;;;5.65;100.00;102703.06;5037890;28;20060;-49
2021/12/20 01:42:44;;;;;;;20.55;3.63;;;;;;;5.94;100.00;102754.97;5055471;28;20476;-52
2021/12/20 01:45:13;;;;;;;23.85;3.28;;;;;;;6.09;100.00;102784.00;5055456;28;20032;-56
2021/12/20 01:47:44;;;;;;;23.75;4.07;;;;;;;5.71;100.00;102725.81;5055109;28;20110;-53
2021/12/20 01:50:22;;;;;;;17.73;4.03;;;;;;;6.05;100.00;102772.59;5037891;28;20124;-52
2021/12/20 01:52:48;;;;;;;19.08;3.47;;;;;;;6.11;100.00;102785.78;5055349;28;20029;-51
2021/12/20 01:55:19;;;;;;;17.20;3.90;;;;;;;6.04;100.00;102764.75;5055304;28;20041;-49
2021/12/20 01:57:44;;;;;;;;;;;;;;;6.13;100.00;102789.28;5037652;28;20021;-51
2021/12/20 02:00:17;;;;;;;22.65;3.63;;;;;;;6.09;100.00;102787.50;5020489;28;19921;-56
2021/12/20 02:02:43;;;;;;;18.52;3.60;;;;;;;6.10;100.00;102798.84;5054933;28;20431;-55
2021/12/20 02:05:20;;;;;;;16.60;3.25;;;;;;;6.11;100.00;102796.22;5055043;28;20395;-57
2021/12/20 02:07:59;;;;;;;24.45;4.40;;;;;;;5.69;100.00;102723.16;5055028;28;20029;-53
2021/12/20 02:10:25;;;;;;;14.93;3.22;;;;;;;5.69;100.00;102712.69;5054898;28;20389;-56
2021/12/20 02:12:50;;;;;;;21.40;4.32;;;;;;;5.65;100.00;102705.69;5037122;28;20040;-56
2021/12/20 02:15:16;;;;;;;21.45;4.85;;;;;;;6.08;100.00;102775.25;5055143;28;20048;-53
2021/12/20 02:17:41;;;;;;;21.33;3.85;;;;;;;5.89;100.00;102740.94;5055051;28;20029;-53
2021/12/20 02:20:08;;;;;;;18.23;3.30;;;;;;;6.09;100.00;102771.81;5053697;28;20040;-56
2021/12/20 02:22:34;;;;;;;24.77;3.78;;;;;;;5.59;100.00;102689.00;5053567;28;20119;-54
2021/12/20 02:24:59;;;;;;;19.25;3.60;;;;;;;5.66;100.00;102711.78;5054702;28;20029;-52
2021/12/20 02:27:25;;;;;;;18.25;3.97;;;;;;;6.03;100.00;102771.69;5054523;28;20040;-53
2021/12/20 02:30:08;;;;;;;20.08;4.43;;;;;;;6.02;100.00;102766.44;5036685;28;20045;-53
2021/12/20 02:38:26;;;;;;;20.35;3.40;;;;;;;5.76;100.00;102720.66;5053636;28;20047;-53
2021/12/20 02:41:01;;;;;;;22.73;3.55;;;;;;;5.64;100.00;102701.28;5054430;28;20442;-49
2021/12/20 02:43:28;;;;;;;22.20;4.18;;;;;;;6.03;100.00;102762.97;5053915;28;20503;-53
2021/12/20 02:45:58;;;;;;;19.88;3.72;;;;;;;5.99;100.00;102759.41;5053931;28;20116;-51
2021/12/20 02:48:23;;;;;;;22.10;3.67;;;;;;;6.09;100.00;102770.91;5054044;28;20068;-56
2021/12/20 02:50:53;;;;;;;15.27;3.22;;;;;;;5.98;100.00;102743.72;5036582;28;20063;-56
2021/12/20 02:53:18;;;;;;;19.42;4.53;;;;;;;5.57;100.00;102668.06;5036457;28;20113;-55
2021/12/20 02:55:43;;;;;;;17.85;3.20;;;;;;;5.96;100.00;102740.19;5054026;28;20116;-53
2021/12/20 02:58:09;;;;;;;16.10;3.60;;;;;;;6.00;100.00;102762.91;5054148;28;20544;-52
2021/12/20 03:00:34;;;;;;;26.13;4.70;;;;;;;5.82;100.00;102723.38;5053742;28;20500;-52
2021/12/20 03:02:59;;;;;;;18.35;4.00;;;;;;;5.58;100.00;102671.56;5070919;28;20067;-53
2021/12/20 03:05:25;;;;;;;19.15;3.75;;;;;;;5.61;100.00;102671.63;5073324;28;20036;-52
2021/12/20 03:07:54;;;;;;;17.98;3.38;;;;;;;5.59;100.00;102681.19;5073969;28;20098;-49
2021/12/20 03:10:22;;;;;;;15.82;4.03;;;;;;;5.71;100.00;102706.63;5055916;28;20506;-53
2021/12/20 03:12:49;;;;;;;25.20;4.53;;;;;;;5.96;100.00;102754.13;5073570;28;20095;-56
2021/12/20 03:15:20;;;;;;;26.58;4.13;;;;;;;5.92;100.00;102744.50;5055818;28;20035;-54
2021/12/20 03:17:45;;;;;;;19.35;3.67;;;;;;;5.53;100.00;102686.28;5073917;28;20055;-55
2021/12/20 03:20:14;;;;;;;29.52;4.25;;;;;;;5.92;100.00;102765.41;5055690;28;20029;-52
2021/12/20 03:22:40;;;;;;;21.67;4.53;;;;;;;5.87;100.00;102743.53;5073706;28;20060;-54
2021/12/20 03:25:06;;;;;;;20.48;3.90;;;;;;;5.54;100.00;102688.06;5073609;28;20028;-54
2021/12/20 03:27:31;;;;;;;18.90;3.72;;;;;;;5.84;100.00;102742.59;5073274;28;20110;-54
2021/12/20 03:29:57;;;;;;;18.58;3.45;;;;;;;5.52;100.00;102694.97;5073380;28;20127;-52
2021/12/20 03:32:22;;;;;;;18.55;3.42;;;;;;;5.85;100.00;102741.72;5055520;28;20040;-56
2021/12/20 03:34:48;;;;;;;20.48;3.90;;;;;;;5.83;100.00;102751.25;5073456;28;20464;-56
2021/12/20 03:37:13;;;;;;;31.55;4.03;;;;;;;5.44;100.00;102681.78;5073314;28;20032;-55
2021/12/20 03:39:38;;;;;;;21.23;4.10;;;;;;;5.53;100.00;102709.81;5073123;28;20036;-54
2021/12/20 03:42:04;;;;;;;19.63;4.07;;;;;;;5.82;100.00;102749.50;5073281;28;20029;-47
2021/12/20 03:44:36;;;;;;;21.17;4.18;;;;;;;5.74;100.00;102744.16;5073016;28;20400;-52
2021/12/20 03:47:02;;;;;;;18.15;3.72;;;;;;;5.39;100.00;102674.72;5072799;28;20044;-50
2021/12/20 03:49:27;;;;;;;26.10;4.20;;;;;;;5.82;100.00;102747.75;5073173;28;20407;-52
2021/12/20 03:51:53;;;;;;;20.30;4.82;;;;;;;5.77;100.00;102740.69;5073188;28;20090;-51
2021/12/20 03:54:18;;;;;;;20.85;3.83;;;;;;;5.49;100.00;102687.06;5072248;28;20062;-52
2021/12/20 03:56:44;;;;;;;17.15;4.03;;;;;;;5.75;100.00;102732.81;5072831;28;20391;-50
2021/12/20 03:59:09;;;;;;;24.10;3.92;;;;;;;5.41;100.00;102671.28;5073082;28;20102;-54
2021/12/20 04:01:35;;;;;;;20.95;4.07;;;;;;;5.82;100.00;102734.69;5055028;28;20131;-52
2021/12/20 04:04:01;;;;;;;28.20;3.53;;;;;;;5.30;100.00;102657.16;5072779;28;20043;-57
2021/12/20 04:06:27;;;;;;;20.58;3.15;;;;;;;5.63;100.00;102715.19;5055167;28;20060;-53
2021/12/20 04:08:52;;;;;;;25.25;4.32;;;;;;;5.81;100.00;102759.06;5072818;28;20514;-52
2021/12/20 04:11:18;;;;;;;18.98;3.28;;;;;;;5.84;100.00;102756.50;5072779;28;20032;-56
2021/12/20 04:13:43;;;;;;;24.13;3.97;;;;;;;5.66;100.00;102728.31;5072905;28;20032;-53
2021/12/20 04:16:09;;;;;;;19.13;3.30;;;;;;;5.88;100.00;102757.47;5055001;28;20101;-57
2021/12/20 04:18:34;;;;;;;21.35;3.95;;;;;;;5.83;100.00;102741.69;5055073;28;20134;-55
2021/12/20 04:21:00;;;;;;;21.38;3.55;;;;;;;5.80;100.00;102738.16;5054825;28;20050;-55
2021/12/20 04:23:26;;;;;;;23.35;4.05;;;;;;;5.94;100.00;102768.03;5054635;28;20032;-54
2021/12/20 04:25:51;;;;;;;16.75;4.07;;;;;;;5.92;100.00;102761.91;5072391;28;20388;-51
2021/12/20 04:28:17;;;;;;;21.00;3.70;;;;;;;5.95;100.00;102757.63;5054606;28;20094;-54
2021/12/20 04:30:42;;;;;;;26.33;5.45;;;;;;;5.93;100.00;102755.81;5054724;28;20037;-52
2021/12/20 04:33:07;;;;;;;19.88;4.43;;;;;;;5.65;100.00;102721.34;5072653;28;20039;-55
2021/12/20 04:35:33;;;;;;;25.48;3.65;;;;;;;5.92;100.00;102767.16;5054531;28;20033;-51
2021/12/20 04:38:00;;;;;;;16.05;3.55;;;;;;;5.54;100.00;102698.50;5072512;28;20509;-51
2021/12/20 04:40:26;;;;;;;17.70;4.15;;;;;;;5.79;100.00;102739.88;5072167;28;20043;-54
2021/12/20 04:42:54;;;;;;;20.73;3.47;;;;;;;5.88;100.00;102760.97;5072281;28;20028;-55
2021/12/20 04:45:20;;;;;;;15.23;3.40;;;;;;;5.77;100.00;102752.03;5054638;28;20029;-53
2021/12/20 04:47:46;;;;;;;18.63;3.95;;;;;;;5.44;100.00;102697.44;5054349;28;20408;-52
2021/12/20 04:50:11;;;;;;;15.65;3.15;;;;;;;5.45;100.00;102691.38;5072406;28;20031;-49
2021/12/20 04:52:37;;;;;;;17.08;2.95;;;;;;;5.52;100.00;102701.06;5072013;28;20033;-49
2021/12/20 04:55:06;;;;;;;19.20;3.25;;;;;;;5.71;100.00;102740.59;5054244;28;20040;-48
2021/12/20 04:57:31;;;;;;;14.82;3.85;;;;;;;5.82;100.00;102776.50;5054012;28;20047;-50
2021/12/20 04:59:56;;;;;;;18.10;3.17;;;;;;;5.80;100.00;102779.97;5037889;28;20041;-55
2021/12/20 05:02:22;;;;;;;10.63;2.38;;;;;;;5.82;100.00;102763.44;5072070;28;20115;-54
2021/12/20 05:04:47;;;;;;;15.27;3.92;;;;;;;5.81;100.00;102759.06;5073294;28;20120;-56
2021/12/20 05:07:12;;;;;;;20.92;3.30;;;;;;;5.86;100.00;102767.03;5058317;28;20554;-51
2021/12/20 05:09:39;;;;;;;14.05;3.22;;;;;;;5.89;100.00;102786.28;5076132;28;20036;-54
2021/12/20 05:12:14;;;;;;;22.42;4.13;;;;;;;5.82;100.00;102757.34;5075935;28;20089;-50
2021/12/20 05:14:42;;;;;;;16.85;3.40;;;;;;;5.60;100.00;102716.91;5075997;28;20033;-49
2021/12/20 05:17:09;;;;;;;18.73;3.88;;;;;;;5.47;100.00;102688.78;5075687;28;20108;-55
2021/12/20 05:19:35;;;;;;;15.25;3.13;;;;;;;5.53;100.00;102707.19;5075624;28;20033;-53
2021/12/20 05:22:00;;;;;;;15.13;3.35;;;;;;;5.56;100.00;102715.06;5057812;28;20078;-60
2021/12/20 05:24:25;;;;;;;17.33;3.40;;;;;;;5.55;100.00;102713.31;5075764;28;20029;-52
2021/12/20 05:26:51;;;;;;;20.75;3.83;;;;;;;5.34;100.00;102685.06;5075683;28;20028;-55
2021/12/20 05:29:16;;;;;;;15.13;3.58;;;;;;;5.80;100.00;102770.38;5057671;28;20063;-50
2021/12/20 05:31:42;;;;;;;18.08;3.70;;;;;;;5.76;100.00;102760.72;5075647;28;20068;-54
2021/12/20 05:34:07;;;;;;;18.63;3.58;;;;;;;5.30;100.00;102693.72;5057698;28;20028;-55
2021/12/20 05:36:32;;;;;;;13.75;3.42;;;;;;;5.74;100.00;102769.38;5075563;28;20036;-54
2021/12/20 05:38:58;;;;;;;23.58;4.07;;;;;;;5.78;100.00;102771.22;5075466;28;20039;-54
2021/12/20 05:41:23;;;;;;;16.50;3.70;;;;;;;5.57;100.00;102743.81;5075131;28;20036;-54
2021/12/20 05:43:49;;;;;;;17.02;2.88;;;;;;;5.76;100.00;102788.59;5075554;28;20036;-57
2021/12/20 05:46:15;;;;;;;16.67;3.15;;;;;;;5.71;100.00;102766.72;5075062;28;20064;-53
2021/12/20 05:48:40;;;;;;;14.45;2.95;;;;;;;5.81;100.00;102789.56;5040812;28;20399;-54
2021/12/20 05:51:06;;;;;;;18.48;3.42;;;;;;;5.81;100.00;102787.81;5075487;28;20040;-53
2021/12/20 05:53:31;;;;;;;18.15;3.58;;;;;;;5.81;100.00;102776.50;5057293;28;20082;-52
2021/12/20 05:55:56;;;;;;;17.85;2.88;;;;;;;5.73;100.00;102767.63;5075109;28;20532;-53
2021/12/20 05:58:21;;;;;;;15.35;3.08;;;;;;;5.73;100.00;102765.00;5075092;28;20040;-54
2021/12/20 06:00:47;;;;;;;14.70;2.70;;;;;;;5.55;100.00;102737.69;5075168;28;20107;-53
2021/12/20 06:03:12;;;;;;;22.38;3.70;;;;;;;5.75;100.00;102758.94;5057273;28;20387;-55
2021/12/20 06:05:41;;;;;;;14.82;3.13;;;;;;;5.51;100.00;102714.13;5074989;28;20498;-52
2021/12/20 06:08:07;;;;;;;23.40;4.40;;;;;;;5.84;100.00;102774.78;5056898;28;20477;-56
2021/12/20 06:10:32;;;;;;;14.48;2.58;;;;;;;5.90;100.00;102789.75;5056996;28;20032;-54
2021/12/20 06:12:57;;;;;;;14.93;2.75;;;;;;;5.87;100.00;102779.22;5056980;28;20082;-55
2021/12/20 06:15:23;;;;;;;17.08;2.85;;;;;;;5.71;100.00;102767.59;5040151;28;20094;-54
2021/12/20 06:17:48;;;;;;;20.38;3.33;;;;;;;5.37;100.00;102703.41;5073837;28;20040;-56
2021/12/20 06:20:14;;;;;;;18.13;3.28;;;;;;;5.42;100.00;102730.50;5074586;28;20040;-55
2021/12/20 06:22:39;;;;;;;14.60;3.08;;;;;;;5.74;100.00;102785.97;5056918;28;20059;-53
2021/12/20 06:25:05;;;;;;;12.60;2.50;;;;;;;5.27;100.00;102703.22;5074520;28;20039;-55
2021/12/20 06:27:30;;;;;;;12.88;2.70;;;;;;;5.71;100.00;102780.69;5070716;28;20040;-54
2021/12/20 06:29:56;;;;;;;11.73;2.92;;;;;;;5.56;100.00;102749.94;5020503;28;20044;-55
2021/12/20 06:32:21;;;;;;;12.10;2.70;;;;;;;5.65;100.00;102777.94;5054023;28;20025;-51
2021/12/20 06:34:47;;;;;;;13.13;2.55;;;;;;;5.61;100.00;102761.31;5052805;28;20389;-54
2021/12/20 06:37:12;;;;;;;10.60;2.90;;;;;;;5.65;100.00;102781.44;5036366;28;20032;-56
2021/12/20 06:39:38;;;;;;;9.27;2.30;;;;;;;5.27;100.00;102705.81;5054192;28;20060;-56
2021/12/20 06:42:04;;;;;;;13.15;2.60;;;;;;;5.66;100.00;102780.56;5054456;28;20025;-56
2021/12/20 06:44:29;;;;;;;18.08;3.25;;;;;;;5.17;100.00;102703.91;5054235;28;20037;-56
2021/12/20 06:46:55;;;;;;;16.98;2.97;;;;;;;5.62;100.00;102786.59;5054174;28;20049;-54
2021/12/20 06:49:21;;;;;;;14.40;2.90;;;;;;;5.48;100.00;102771.53;5036290;28;20120;-55
2021/12/20 06:51:47;;;;;;;15.80;3.10;;;;;;;5.23;100.00;102720.53;5054206;28;20407;-57
2021/12/20 06:54:15;;;;;;;11.57;2.38;;;;;;;5.05;100.00;102705.41;5052934;28;20198;-54
2021/12/20 06:56:40;;;;;;;13.35;2.70;;;;;;;5.20;100.00;102727.44;5052810;28;20061;-50
2021/12/20 06:59:06;;;;;;;17.42;3.80;;;;;;;5.20;100.00;102720.50;5053849;28;20087;-51
2021/12/20 07:01:31;;;;;;;18.00;2.90;;;;;;;5.63;100.00;102787.50;5053570;28;20224;-53
2021/12/20 07:03:57;;;;;;;11.85;2.42;;;;;;;5.62;100.00;102804.91;5035961;28;20036;-54
2021/12/20 07:06:23;;;;;;;13.88;3.13;;;;;;;5.58;100.00;102786.50;5053817;28;20037;-51
2021/12/20 07:08:48;;;;;;;13.40;2.38;;;;;;;5.69;100.00;102813.75;5035765;28;20029;-51
2021/12/20 07:11:14;;;;;;;13.10;2.20;;;;;;;5.39;100.00;102745.22;5054007;28;20041;-54
2021/12/20 07:13:39;;;;;;;23.08;3.17;;;;;;;5.64;100.00;102779.66;5052633;28;20079;-51
2021/12/20 07:16:06;;;;;;;19.67;2.53;;;;;;;5.86;100.00;102814.09;5053580;28;20029;-53
2021/12/20 07:18:31;;;;;;;13.25;2.40;;;;;;;5.82;100.00;102805.25;5053453;28;20098;-54
2021/12/20 07:20:57;;;;;;;13.23;2.58;;;;;;;5.42;100.00;102727.00;5053261;28;20484;-55
2021/12/20 07:23:23;;;;;;;9.55;1.70;;;;;;;5.83;100.00;102801.81;5053339;28;20041;-54
2021/12/20 07:25:49;;;;;;;10.77;2.17;;;;;;;5.81;100.00;102798.25;5053512;28;20483;-51
2021/12/20 07:28:14;;;;;;;14.63;2.28;;;;;;;5.79;100.00;102799.97;5051902;28;20029;-56
2021/12/20 07:30:40;;;;;;;10.32;1.88;;;;;;;5.79;100.00;102813.03;5053337;28;20231;-57
2021/12/20 07:33:07;;;;;;;11.48;2.28;;;;;;;5.70;100.00;102784.13;5053381;28;20033;-48
2021/12/20 07:35:33;;;;;;;10.55;2.00;;;;;;;5.37;100.00;102733.88;5053364;28;20472;-55
2021/12/20 07:38:00;;;;;;;6.18;1.95;;;;;;;5.72;100.00;102792.88;5052744;28;20036;-51
2021/12/20 07:40:26;;;;;;;7.10;2.53;;;;;;;5.64;100.00;102778.78;5051832;28;20039;-54
2021/12/20 07:42:51;;;;;;;8.77;2.10;;;;;;;5.70;100.00;102802.41;5053119;28;20034;-54
2021/12/20 07:45:17;;;;;;;11.77;2.13;;;;;;;5.53;100.00;102767.25;5053162;28;20044;-57
2021/12/20 07:47:42;;;;;;;10.27;2.17;;;;;;;5.29;100.00;102735.44;5034976;28;20064;-52
2021/12/20 07:50:08;;;;;;;11.52;2.67;;;;;;;5.64;100.00;102802.31;5053262;28;20400;-56
2021/12/20 07:52:33;;;;;;;10.45;2.17;;;;;;;5.70;100.00;102818.09;5052967;28;20082;-53
2021/12/20 07:54:59;;;;;;;10.32;2.78;;;;;;;5.69;100.00;102814.59;5051918;28;20036;-52
2021/12/20 07:57:25;;;;;;;7.25;2.13;;;;;;;5.39;100.00;102758.28;5052599;28;20032;-53
2021/12/20 07:59:51;;;;;;;13.80;2.97;;;;;;;5.61;100.00;102807.47;5051634;28;20040;-56
2021/12/20 08:02:16;;;;;;;13.82;2.95;;;;;;;5.27;100.00;102756.31;5035231;28;20053;-54
2021/12/20 08:04:47;;;;;;;11.35;3.10;;;;;;;5.57;100.00;102801.28;5051696;28;20465;-56
2021/12/20 08:07:13;;;;;;;12.48;4.13;;;;;;;5.54;100.00;102814.31;5052629;28;20033;-53
2021/12/20 08:09:39;;;;;;;17.63;4.07;;;;;;;5.39;100.00;102794.84;5053097;28;20055;-51
2021/12/20 08:12:05;;;;;;;13.75;3.95;;;;;;;5.48;100.00;102810.72;5051552;28;20419;-54
2021/12/20 08:14:30;;;;;;;11.18;3.58;;;;;;;4.99;100.00;102759.22;5034884;28;20125;-53
2021/12/20 08:16:55;;;;;;;15.80;3.45;;;;;;;5.33;100.00;102786.91;5052409;28;20071;-54
2021/12/20 08:19:21;;;;;;;9.98;3.35;;;;;;;5.19;100.00;102772.69;5052410;28;20033;-54
2021/12/20 08:21:46;;;;;;;12.90;3.47;;;;;;;5.45;100.00;102806.31;5052391;28;20079;-56
2021/12/20 08:24:11;;;;;;;12.23;2.92;;;;;;;5.39;100.00;102807.91;5051245;28;20071;-55
2021/12/20 08:26:37;;;;;;;14.18;3.53;;;;;;;5.38;100.00;102806.13;5034802;28;20443;-53
2021/12/20 08:29:02;;;;;;;9.57;2.92;;;;;;;5.50;100.00;102835.13;5052439;28;20033;-55
2021/12/20 08:31:28;;;;;;;10.95;2.78;;;;;;;5.13;100.00;102765.63;5052247;28;20043;-55
2021/12/20 08:33:54;;;;;;;11.05;3.00;;;;;;;5.51;100.00;102834.28;5052061;28;20596;-54
2021/12/20 08:36:20;;;;;;;13.35;2.60;;;;;;;5.50;100.00;102820.31;5052131;28;20080;-52
2021/12/20 08:38:45;;;;;;;10.35;2.33;;;;;;;5.53;100.00;102822.13;5034514;28;20064;-52
2021/12/20 08:41:13;;;;;;;18.90;3.00;;;;;;;5.56;100.00;102833.50;5029468;28;20472;-53
2021/12/20 08:43:40;;;;;;;12.75;2.55;;;;;;;5.62;100.00;102817.06;5033820;28;20129;-55
2021/12/20 08:46:06;;;;;;;10.45;2.50;;;;;;;5.66;100.00;102811.94;5050445;28;20025;-54
2021/12/20 08:48:32;;;;;;;15.20;2.75;;;;;;;5.31;100.00;102736.38;5033303;28;20044;-55
2021/12/20 08:51:01;;;;;;;14.63;3.88;;;;;;;5.70;100.00;102815.47;5051083;28;20086;-51
2021/12/20 08:53:26;;;;;;;16.20;3.20;;;;;;;5.76;100.00;102812.97;5033989;28;20029;-56
2021/12/20 08:55:51;;;;;;;12.65;3.85;;;;;;;5.78;100.00;102806.03;5033406;28;20029;-54
2021/12/20 08:58:17;;;;;;;15.68;3.45;;;;;;;5.81;100.00;102820.94;5051358;28;20044;-53
2021/12/20 09:00:42;;;;;;;15.43;3.63;;;;;;;5.80;100.00;102812.19;5033257;28;20060;-54
2021/12/20 09:03:07;;;;;;;15.73;3.05;;;;;;;5.84;100.00;102821.84;5051319;28;20041;-54
2021/12/20 09:05:34;;;;;;;10.93;3.00;;;;;;;5.54;100.00;102767.31;5051170;28;20172;-53
2021/12/20 09:08:01;;;;;;;17.25;3.30;;;;;;;5.90;100.00;102818.50;5051118;28;20040;-55
2021/12/20 09:10:28;;;;;;;16.38;3.33;;;;;;;5.93;100.00;102808.09;5051042;28;20079;-56
2021/12/20 09:12:53;;;;;;;9.98;2.85;;;;;;;5.59;100.00;102755.22;5033506;28;20033;-55
2021/12/20 09:15:19;;;;;;;16.20;2.85;;;;;;;6.01;100.00;102827.44;5033200;28;20115;-55
2021/12/20 09:17:46;;;;;;;16.00;2.83;;;;;;;5.92;100.00;102806.34;5051196;28;20092;-55
2021/12/20 09:20:15;;;;;;;12.02;3.28;;;;;;;5.69;100.00;102758.88;5050932;28;20082;-54
2021/12/20 09:22:57;;;;;;;14.43;2.47;;;;;;;5.83;100.00;102793.97;5051140;28;20070;-54
2021/12/20 09:25:25;;;;;;;12.95;3.17;;;;;;;5.66;100.00;102779.72;5050692;28;20025;-54
2021/12/20 09:27:51;;;;;;;11.30;2.50;;;;;;;6.06;100.00;102834.50;5033292;28;20041;-53
2021/12/20 09:30:17;;;;;;;14.50;3.00;;;;;;;6.05;100.00;102832.72;5067362;28;20047;-54
2021/12/20 09:32:43;;;;;;;10.02;2.65;;;;;;;6.05;100.00;102829.22;5069565;28;20585;-54
2021/12/20 09:35:09;;;;;;;11.45;2.97;;;;;;;6.07;100.00;102817.94;5052005;28;20485;-53
2021/12/20 09:37:34;;;;;;;12.95;2.15;;;;;;;6.07;100.00;102831.00;5069977;28;20059;-55
2021/12/20 09:40:00;;;;;;;15.90;2.75;;;;;;;5.73;100.00;102759.78;5053532;28;20033;-54
2021/12/20 09:42:25;;;;;;;10.88;3.22;;;;;;;6.18;100.00;102829.50;5071283;28;20058;-57
2021/12/20 09:44:53;;;;;;;11.95;2.47;;;;;;;6.09;100.00;102812.75;5052703;28;20029;-57
2021/12/20 09:47:18;;;;;;;15.98;3.60;;;;;;;6.28;100.00;102829.63;5071400;28;20068;-55
2021/12/20 09:49:44;;;;;;;13.48;2.85;;;;;;;6.26;100.00;102815.63;5036907;28;20472;-54
2021/12/20 09:52:09;;;;;;;12.38;2.65;;;;;;;6.45;100.00;102833.41;5038055;28;20024;-56
2021/12/20 09:54:34;;;;;;;8.70;2.25;;;;;;;6.48;100.00;102823.84;5074983;28;20036;-55
2021/12/20 09:57:02;;;;;;;11.40;2.38;;;;;;;6.26;100.00;102784.25;5075143;28;20032;-55
2021/12/20 09:59:29;;;;;;;8.00;1.98;;;;;;;6.57;100.00;102820.50;5074773;28;20063;-55
2021/12/20 10:01:55;;;;;;;10.60;2.47;;;;;;;6.75;100.00;102855.69;5075127;28;20029;-53
2021/12/20 10:04:22;;;;;;;10.00;2.38;;;;;;;6.53;100.00;102782.97;5040335;28;20430;-55
2021/12/20 10:06:56;;;;;;;13.57;2.53;;;;;;;6.95;100.00;102842.88;5075010;28;20403;-58
2021/12/20 10:09:28;;;;;;;7.80;1.98;;;;;;;7.03;100.00;102849.13;5074852;28;20039;-53
2021/12/20 10:12:09;;;;;;;;;;;;;;;7.14;100.00;102849.28;5057210;28;20028;-56
2021/12/20 10:14:58;;;;;;;12.00;2.55;;;;;;;7.20;100.00;102850.25;5074955;28;19917;-54
2021/12/20 10:17:26;;;;;;;9.88;2.10;;;;;;;7.22;100.00;102851.13;5057032;28;20029;-52
2021/12/20 10:19:52;;;;;;;9.23;2.25;;;;;;;7.30;100.00;102859.09;5074195;28;20192;-53
2021/12/20 10:22:29;;;;;;;9.63;2.53;;;;;;;7.03;100.00;102793.25;5054721;28;20040;-53
2021/12/20 10:24:58;;;;;;;9.90;2.80;;;;;;;7.08;100.00;102810.78;5073089;28;20068;-54
2021/12/20 10:27:41;;;;;;;7.63;2.40;;;;;;;7.50;100.00;102867.22;5055592;28;20028;-50
2021/12/20 10:30:22;;;;;;;10.40;2.70;;;;;;;7.54;100.00;102867.25;5055722;28;20044;-53
2021/12/20 10:32:47;;;;;;;10.75;2.30;;;;;;;7.50;100.00;102846.25;5073435;28;20537;-53
2021/12/20 10:35:31;;;;;;;10.55;2.72;;;;;;;7.21;100.00;102789.13;5073184;28;20044;-54
2021/12/20 10:38:07;;;;;;;7.75;2.15;;;;;;;7.23;100.00;102797.91;5073092;28;20039;-52
2021/12/20 10:40:34;;;;;;;11.50;2.28;;;;;;;7.52;100.00;102850.66;5073061;28;20078;-54
2021/12/20 10:43:05;;;;;;;6.10;2.15;;;;;;;7.59;100.00;102865.56;5072766;28;20463;-57
2021/12/20 10:45:30;;;;;;;11.40;2.25;;;;;;;7.58;100.00;102860.31;5055138;28;20412;-52
2021/12/20 10:48:08;;;;;;;10.38;1.92;;;;;;;7.57;100.00;102864.69;5072949;28;20102;-50
2021/12/20 10:50:40;;;;;;;9.23;2.25;;;;;;;7.17;100.00;102792.59;5073088;28;20102;-59
2021/12/20 10:53:25;;;;;;;11.15;2.78;;;;;;;7.44;100.00;102844.44;5073216;28;20488;-54
2021/12/20 10:55:57;;;;;;;8.30;2.13;;;;;;;7.25;100.00;102790.94;5073057;28;20506;-49
2021/12/20 10:58:36;;;;;;;7.97;2.00;;;;;;;7.67;100.00;102861.31;5073021;28;20036;-53
2021/12/20 11:04:14;;;;;;;7.05;1.65;;;;;;;7.58;100.00;102866.44;5072478;28;20041;-53
2021/12/20 11:09:15;;;;;;;11.82;2.42;;;;;;;7.46;100.00;102853.19;5072305;28;20037;-51
2021/12/20 11:11:45;;;;;;;8.77;2.70;;;;;;;7.43;100.00;102855.78;5072070;28;20284;-53
2021/12/20 11:14:11;;;;;;;9.98;1.70;;;;;;;7.03;100.00;102795.88;5072240;28;20036;-56
2021/12/20 11:16:40;;;;;;;9.23;1.70;;;;;;;7.32;100.00;102860.88;5054214;28;20040;-52
2021/12/20 11:19:09;;;;;;;5.70;1.58;;;;;;;7.27;100.00;102861.66;5053904;28;20084;-51
2021/12/20 11:21:35;;;;;;;6.50;1.95;;;;;;;7.21;100.00;102862.47;5071943;28;20036;-53
2021/12/20 11:24:00;;;;;;;9.27;2.30;;;;;;;6.95;100.00;102801.00;5071827;28;20040;-53
2021/12/20 11:26:29;;;;;;;8.30;2.08;;;;;;;6.95;100.00;102776.56;5071447;28;20671;-53
2021/12/20 11:28:56;;;;;;;5.95;1.80;;;;;;;7.31;100.00;102837.28;5071595;28;20040;-51
2021/12/20 11:31:22;;;;;;;11.02;2.92;;;;;;;7.43;100.00;102852.25;5053740;28;20059;-56